sensor_id;sensor_type;location;lat;lon;timestamp;P1;durP1;ratioP1;P2;durP2;ratioP2
9364;SDS011;4722;49.340;9.800;2024-03-22T00:00:42;5.25;;;2.72;;
9364;SDS011;4722;49.340;9.800;2024-03-22T00:03:14;6.45;;;3.20;;
9364;SDS011;4722;49.340;9.800;2024-03-22T00:05:40;5.25;;;2.67;;
9364;SDS011;4722;49.340;9.800;2024-03-22T00:08:06;11.27;;;3.63;;
9364;SDS011;4722;49.340;9.800;2024-03-22T00:10:32;6.72;;;3.63;;
9364;SDS011;4722;49.340;9.800;2024-03-22T00:12:58;7.38;;;3.20;;
9364;SDS011;4722;49.340;9.800;2024-03-22T00:15:24;12.68;;;3.83;;
9364;SDS011;4722;49.340;9.800;2024-03-22T00:17:50;6.28;;;3.60;;
9364;SDS011;4722;49.340;9.800;2024-03-22T00:20:16;8.38;;;4.47;;
9364;SDS011;4722;49.340;9.800;2024-03-22T00:22:42;10.50;;;5.10;;
9364;SDS011;4722;49.340;9.800;2024-03-22T00:25:08;10.10;;;4.78;;
9364;SDS011;4722;49.340;9.800;2024-03-22T00:27:34;8.60;;;4.85;;
9364;SDS011;4722;49.340;9.800;2024-03-22T00:30:00;12.15;;;4.78;;
9364;SDS011;4722;49.340;9.800;2024-03-22T00:32:26;9.95;;;4.22;;
9364;SDS011;4722;49.340;9.800;2024-03-22T00:34:52;15.35;;;4.75;;
9364;SDS011;4722;49.340;9.800;2024-03-22T00:37:18;11.20;;;5.63;;
9364;SDS011;4722;49.340;9.800;2024-03-22T00:39:44;11.25;;;4.68;;
9364;SDS011;4722;49.340;9.800;2024-03-22T00:42:10;11.68;;;4.68;;
9364;SDS011;4722;49.340;9.800;2024-03-22T00:44:36;6.93;;;4.05;;
9364;SDS011;4722;49.340;9.800;2024-03-22T00:47:02;6.93;;;3.67;;
9364;SDS011;4722;49.340;9.800;2024-03-22T00:49:28;5.65;;;3.50;;
9364;SDS011;4722;49.340;9.800;2024-03-22T00:51:54;7.45;;;3.60;;
9364;SDS011;4722;49.340;9.800;2024-03-22T00:54:21;6.40;;;3.05;;
9364;SDS011;4722;49.340;9.800;2024-03-22T00:56:47;5.97;;;3.15;;
9364;SDS011;4722;49.340;9.800;2024-03-22T00:59:13;4.90;;;2.95;;
9364;SDS011;4722;49.340;9.800;2024-03-22T01:01:39;6.20;;;2.67;;
9364;SDS011;4722;49.340;9.800;2024-03-22T01:04:05;7.43;;;3.60;;
9364;SDS011;4722;49.340;9.800;2024-03-22T01:06:33;7.28;;;3.25;;
9364;SDS011;4722;49.340;9.800;2024-03-22T01:08:59;5.97;;;3.40;;
9364;SDS011;4722;49.340;9.800;2024-03-22T01:11:25;6.80;;;3.03;;
9364;SDS011;4722;49.340;9.800;2024-03-22T01:13:51;6.30;;;2.75;;
9364;SDS011;4722;49.340;9.800;2024-03-22T01:16:17;7.53;;;3.65;;
9364;SDS011;4722;49.340;9.800;2024-03-22T01:18:43;6.72;;;2.80;;
9364;SDS011;4722;49.340;9.800;2024-03-22T01:21:09;6.75;;;3.22;;
9364;SDS011;4722;49.340;9.800;2024-03-22T01:23:35;7.45;;;2.97;;
9364;SDS011;4722;49.340;9.800;2024-03-22T01:26:01;5.78;;;3.20;;
9364;SDS011;4722;49.340;9.800;2024-03-22T01:28:27;8.43;;;3.78;;
9364;SDS011;4722;49.340;9.800;2024-03-22T01:30:53;6.40;;;3.38;;
9364;SDS011;4722;49.340;9.800;2024-03-22T01:33:19;9.88;;;3.78;;
9364;SDS011;4722;49.340;9.800;2024-03-22T01:35:44;6.20;;;3.25;;
9364;SDS011;4722;49.340;9.800;2024-03-22T01:38:10;9.25;;;4.35;;
9364;SDS011;4722;49.340;9.800;2024-03-22T01:40:36;7.47;;;3.38;;
9364;SDS011;4722;49.340;9.800;2024-03-22T01:43:02;7.45;;;3.63;;
9364;SDS011;4722;49.340;9.800;2024-03-22T01:45:31;5.88;;;3.60;;
9364;SDS011;4722;49.340;9.800;2024-03-22T01:47:58;4.68;;;3.05;;
9364;SDS011;4722;49.340;9.800;2024-03-22T01:50:24;7.80;;;3.05;;
9364;SDS011;4722;49.340;9.800;2024-03-22T01:52:50;6.47;;;2.85;;
9364;SDS011;4722;49.340;9.800;2024-03-22T01:55:16;7.60;;;2.90;;
9364;SDS011;4722;49.340;9.800;2024-03-22T01:57:42;7.97;;;3.88;;
9364;SDS011;4722;49.340;9.800;2024-03-22T02:00:09;15.40;;;3.40;;
9364;SDS011;4722;49.340;9.800;2024-03-22T02:02:35;8.32;;;3.90;;
9364;SDS011;4722;49.340;9.800;2024-03-22T02:05:17;7.63;;;3.80;;
9364;SDS011;4722;49.340;9.800;2024-03-22T02:07:46;6.55;;;2.95;;
9364;SDS011;4722;49.340;9.800;2024-03-22T02:10:13;7.03;;;3.00;;
9364;SDS011;4722;49.340;9.800;2024-03-22T02:12:40;8.30;;;3.05;;
9364;SDS011;4722;49.340;9.800;2024-03-22T02:15:06;5.25;;;3.03;;
9364;SDS011;4722;49.340;9.800;2024-03-22T02:17:33;4.28;;;2.55;;
9364;SDS011;4722;49.340;9.800;2024-03-22T02:19:59;5.95;;;3.10;;
9364;SDS011;4722;49.340;9.800;2024-03-22T02:22:26;6.43;;;3.08;;
9364;SDS011;4722;49.340;9.800;2024-03-22T02:24:52;8.35;;;2.85;;
9364;SDS011;4722;49.340;9.800;2024-03-22T02:27:18;7.13;;;3.35;;
9364;SDS011;4722;49.340;9.800;2024-03-22T02:29:43;5.72;;;3.17;;
9364;SDS011;4722;49.340;9.800;2024-03-22T02:32:09;6.70;;;3.08;;
9364;SDS011;4722;49.340;9.800;2024-03-22T02:34:36;7.43;;;3.30;;
9364;SDS011;4722;49.340;9.800;2024-03-22T02:37:02;9.63;;;3.85;;
9364;SDS011;4722;49.340;9.800;2024-03-22T02:39:28;7.22;;;3.58;;
9364;SDS011;4722;49.340;9.800;2024-03-22T02:41:54;6.47;;;3.35;;
9364;SDS011;4722;49.340;9.800;2024-03-22T02:44:20;8.45;;;3.83;;
9364;SDS011;4722;49.340;9.800;2024-03-22T02:46:46;11.50;;;3.78;;
9364;SDS011;4722;49.340;9.800;2024-03-22T02:49:12;11.52;;;4.45;;
9364;SDS011;4722;49.340;9.800;2024-03-22T02:51:38;7.63;;;3.40;;
9364;SDS011;4722;49.340;9.800;2024-03-22T02:54:04;6.65;;;3.50;;
9364;SDS011;4722;49.340;9.800;2024-03-22T02:56:30;8.60;;;2.65;;
9364;SDS011;4722;49.340;9.800;2024-03-22T02:58:56;7.75;;;3.95;;
9364;SDS011;4722;49.340;9.800;2024-03-22T03:01:22;8.23;;;3.88;;
9364;SDS011;4722;49.340;9.800;2024-03-22T03:03:48;7.63;;;3.33;;
9364;SDS011;4722;49.340;9.800;2024-03-22T03:06:14;8.45;;;4.13;;
9364;SDS011;4722;49.340;9.800;2024-03-22T03:08:41;10.90;;;4.38;;
9364;SDS011;4722;49.340;9.800;2024-03-22T03:11:07;7.25;;;4.03;;
9364;SDS011;4722;49.340;9.800;2024-03-22T03:13:33;7.82;;;3.38;;
9364;SDS011;4722;49.340;9.800;2024-03-22T03:15:59;6.82;;;3.45;;
9364;SDS011;4722;49.340;9.800;2024-03-22T03:18:25;10.30;;;3.65;;
9364;SDS011;4722;49.340;9.800;2024-03-22T03:20:51;11.35;;;4.53;;
9364;SDS011;4722;49.340;9.800;2024-03-22T03:23:17;6.78;;;3.80;;
9364;SDS011;4722;49.340;9.800;2024-03-22T03:25:43;7.22;;;3.70;;
9364;SDS011;4722;49.340;9.800;2024-03-22T03:28:09;7.90;;;4.13;;
9364;SDS011;4722;49.340;9.800;2024-03-22T03:30:35;12.60;;;4.18;;
9364;SDS011;4722;49.340;9.800;2024-03-22T03:33:22;9.07;;;4.28;;
9364;SDS011;4722;49.340;9.800;2024-03-22T03:35:48;18.55;;;4.65;;
9364;SDS011;4722;49.340;9.800;2024-03-22T03:38:14;6.65;;;4.10;;
9364;SDS011;4722;49.340;9.800;2024-03-22T03:40:40;12.88;;;3.47;;
9364;SDS011;4722;49.340;9.800;2024-03-22T03:43:06;11.52;;;4.32;;
9364;SDS011;4722;49.340;9.800;2024-03-22T03:45:32;8.93;;;4.03;;
9364;SDS011;4722;49.340;9.800;2024-03-22T03:47:58;8.98;;;3.75;;
9364;SDS011;4722;49.340;9.800;2024-03-22T03:50:24;8.57;;;4.15;;
9364;SDS011;4722;49.340;9.800;2024-03-22T03:52:50;8.23;;;3.88;;
9364;SDS011;4722;49.340;9.800;2024-03-22T03:55:16;14.70;;;4.57;;
9364;SDS011;4722;49.340;9.800;2024-03-22T03:57:42;10.13;;;4.60;;
9364;SDS011;4722;49.340;9.800;2024-03-22T04:00:08;8.57;;;4.30;;
9364;SDS011;4722;49.340;9.800;2024-03-22T04:02:34;10.05;;;3.75;;
9364;SDS011;4722;49.340;9.800;2024-03-22T04:05:00;7.85;;;3.90;;
9364;SDS011;4722;49.340;9.800;2024-03-22T04:07:26;8.73;;;4.35;;
9364;SDS011;4722;49.340;9.800;2024-03-22T04:09:52;10.00;;;4.65;;
9364;SDS011;4722;49.340;9.800;2024-03-22T04:12:18;7.97;;;3.20;;
9364;SDS011;4722;49.340;9.800;2024-03-22T04:14:44;10.50;;;4.38;;
9364;SDS011;4722;49.340;9.800;2024-03-22T04:17:10;9.45;;;4.40;;
9364;SDS011;4722;49.340;9.800;2024-03-22T04:19:36;8.55;;;4.22;;
9364;SDS011;4722;49.340;9.800;2024-03-22T04:22:02;9.63;;;4.43;;
9364;SDS011;4722;49.340;9.800;2024-03-22T04:24:28;8.15;;;4.50;;
9364;SDS011;4722;49.340;9.800;2024-03-22T04:26:54;11.30;;;4.55;;
9364;SDS011;4722;49.340;9.800;2024-03-22T04:29:20;9.85;;;3.40;;
9364;SDS011;4722;49.340;9.800;2024-03-22T04:31:46;14.10;;;4.10;;
9364;SDS011;4722;49.340;9.800;2024-03-22T04:34:12;9.32;;;5.63;;
9364;SDS011;4722;49.340;9.800;2024-03-22T04:36:37;7.63;;;4.28;;
9364;SDS011;4722;49.340;9.800;2024-03-22T04:39:03;8.45;;;4.55;;
9364;SDS011;4722;49.340;9.800;2024-03-22T04:41:29;13.18;;;5.85;;
9364;SDS011;4722;49.340;9.800;2024-03-22T04:43:55;11.43;;;5.47;;
9364;SDS011;4722;49.340;9.800;2024-03-22T04:46:21;9.77;;;4.65;;
9364;SDS011;4722;49.340;9.800;2024-03-22T04:48:47;9.38;;;4.18;;
9364;SDS011;4722;49.340;9.800;2024-03-22T04:51:13;8.88;;;4.88;;
9364;SDS011;4722;49.340;9.800;2024-03-22T04:53:39;12.25;;;5.32;;
9364;SDS011;4722;49.340;9.800;2024-03-22T04:56:06;12.07;;;5.38;;
9364;SDS011;4722;49.340;9.800;2024-03-22T04:58:32;10.65;;;4.18;;
9364;SDS011;4722;49.340;9.800;2024-03-22T05:00:58;8.13;;;4.45;;
9364;SDS011;4722;49.340;9.800;2024-03-22T05:03:24;9.15;;;3.95;;
9364;SDS011;4722;49.340;9.800;2024-03-22T05:05:50;12.50;;;5.65;;
9364;SDS011;4722;49.340;9.800;2024-03-22T05:08:16;10.68;;;4.50;;
9364;SDS011;4722;49.340;9.800;2024-03-22T05:10:42;11.27;;;5.13;;
9364;SDS011;4722;49.340;9.800;2024-03-22T05:13:08;11.88;;;5.28;;
9364;SDS011;4722;49.340;9.800;2024-03-22T05:15:34;12.65;;;5.20;;
9364;SDS011;4722;49.340;9.800;2024-03-22T05:18:00;15.45;;;4.97;;
9364;SDS011;4722;49.340;9.800;2024-03-22T05:20:26;19.90;;;5.72;;
9364;SDS011;4722;49.340;9.800;2024-03-22T05:22:52;8.90;;;4.30;;
9364;SDS011;4722;49.340;9.800;2024-03-22T05:25:18;7.95;;;4.28;;
9364;SDS011;4722;49.340;9.800;2024-03-22T05:27:44;9.70;;;4.93;;
9364;SDS011;4722;49.340;9.800;2024-03-22T05:30:11;10.25;;;4.75;;
9364;SDS011;4722;49.340;9.800;2024-03-22T05:32:38;13.70;;;5.90;;
9364;SDS011;4722;49.340;9.800;2024-03-22T05:35:05;10.95;;;5.43;;
9364;SDS011;4722;49.340;9.800;2024-03-22T05:37:31;9.80;;;4.93;;
9364;SDS011;4722;49.340;9.800;2024-03-22T05:39:58;12.13;;;5.68;;
9364;SDS011;4722;49.340;9.800;2024-03-22T05:42:25;10.93;;;5.50;;
9364;SDS011;4722;49.340;9.800;2024-03-22T05:47:36;12.20;;;5.00;;
9364;SDS011;4722;49.340;9.800;2024-03-22T05:50:03;13.32;;;5.32;;
9364;SDS011;4722;49.340;9.800;2024-03-22T05:52:31;10.95;;;5.85;;
9364;SDS011;4722;49.340;9.800;2024-03-22T05:54:57;10.40;;;5.72;;
9364;SDS011;4722;49.340;9.800;2024-03-22T05:57:23;13.23;;;5.32;;
9364;SDS011;4722;49.340;9.800;2024-03-22T05:59:49;15.30;;;6.15;;
9364;SDS011;4722;49.340;9.800;2024-03-22T06:02:15;12.40;;;6.15;;
9364;SDS011;4722;49.340;9.800;2024-03-22T06:04:42;12.80;;;6.32;;
9364;SDS011;4722;49.340;9.800;2024-03-22T06:07:08;15.00;;;6.20;;
9364;SDS011;4722;49.340;9.800;2024-03-22T06:09:34;14.32;;;6.53;;
9364;SDS011;4722;49.340;9.800;2024-03-22T06:12:11;13.18;;;6.13;;
9364;SDS011;4722;49.340;9.800;2024-03-22T06:14:37;17.27;;;8.13;;
9364;SDS011;4722;49.340;9.800;2024-03-22T06:17:03;16.38;;;7.57;;
9364;SDS011;4722;49.340;9.800;2024-03-22T06:19:29;14.07;;;7.38;;
9364;SDS011;4722;49.340;9.800;2024-03-22T06:21:58;12.50;;;6.38;;
9364;SDS011;4722;49.340;9.800;2024-03-22T06:24:24;12.98;;;6.30;;
9364;SDS011;4722;49.340;9.800;2024-03-22T06:26:50;13.73;;;6.70;;
9364;SDS011;4722;49.340;9.800;2024-03-22T06:29:16;10.10;;;5.43;;
9364;SDS011;4722;49.340;9.800;2024-03-22T06:31:42;14.50;;;6.20;;
9364;SDS011;4722;49.340;9.800;2024-03-22T06:34:08;12.55;;;5.78;;
9364;SDS011;4722;49.340;9.800;2024-03-22T06:36:34;12.38;;;7.10;;
9364;SDS011;4722;49.340;9.800;2024-03-22T06:39:00;10.02;;;6.05;;
9364;SDS011;4722;49.340;9.800;2024-03-22T06:41:28;12.20;;;6.30;;
9364;SDS011;4722;49.340;9.800;2024-03-22T06:43:54;12.93;;;5.18;;
9364;SDS011;4722;49.340;9.800;2024-03-22T06:46:20;13.68;;;5.50;;
9364;SDS011;4722;49.340;9.800;2024-03-22T06:48:46;13.32;;;5.65;;
9364;SDS011;4722;49.340;9.800;2024-03-22T06:51:12;13.43;;;5.88;;
9364;SDS011;4722;49.340;9.800;2024-03-22T06:53:37;11.75;;;5.00;;
9364;SDS011;4722;49.340;9.800;2024-03-22T06:56:04;14.82;;;5.20;;
9364;SDS011;4722;49.340;9.800;2024-03-22T06:58:30;17.77;;;7.13;;
9364;SDS011;4722;49.340;9.800;2024-03-22T07:00:56;11.10;;;5.32;;
9364;SDS011;4722;49.340;9.800;2024-03-22T07:03:22;9.93;;;5.00;;
9364;SDS011;4722;49.340;9.800;2024-03-22T07:05:48;18.38;;;4.93;;
9364;SDS011;4722;49.340;9.800;2024-03-22T07:08:14;12.27;;;5.65;;
9364;SDS011;4722;49.340;9.800;2024-03-22T07:10:40;11.90;;;6.03;;
9364;SDS011;4722;49.340;9.800;2024-03-22T07:13:06;10.23;;;4.97;;
9364;SDS011;4722;49.340;9.800;2024-03-22T07:15:32;12.98;;;6.07;;
9364;SDS011;4722;49.340;9.800;2024-03-22T07:17:58;11.13;;;5.30;;
9364;SDS011;4722;49.340;9.800;2024-03-22T07:20:25;14.05;;;5.20;;
9364;SDS011;4722;49.340;9.800;2024-03-22T07:22:52;11.73;;;4.93;;
9364;SDS011;4722;49.340;9.800;2024-03-22T07:25:18;12.65;;;6.03;;
9364;SDS011;4722;49.340;9.800;2024-03-22T07:27:44;15.48;;;6.38;;
9364;SDS011;4722;49.340;9.800;2024-03-22T07:30:11;11.05;;;5.90;;
9364;SDS011;4722;49.340;9.800;2024-03-22T07:32:37;12.32;;;6.35;;
9364;SDS011;4722;49.340;9.800;2024-03-22T07:35:03;13.98;;;5.70;;
9364;SDS011;4722;49.340;9.800;2024-03-22T07:37:29;13.85;;;5.25;;
9364;SDS011;4722;49.340;9.800;2024-03-22T07:39:55;13.35;;;5.85;;
9364;SDS011;4722;49.340;9.800;2024-03-22T07:42:21;16.55;;;6.22;;
9364;SDS011;4722;49.340;9.800;2024-03-22T07:44:47;18.05;;;5.65;;
9364;SDS011;4722;49.340;9.800;2024-03-22T07:47:13;13.63;;;6.28;;
9364;SDS011;4722;49.340;9.800;2024-03-22T07:49:39;13.73;;;5.53;;
9364;SDS011;4722;49.340;9.800;2024-03-22T07:52:05;12.10;;;5.57;;
9364;SDS011;4722;49.340;9.800;2024-03-22T07:54:31;16.25;;;6.80;;
9364;SDS011;4722;49.340;9.800;2024-03-22T07:56:57;12.88;;;6.00;;
9364;SDS011;4722;49.340;9.800;2024-03-22T07:59:23;13.75;;;6.47;;
9364;SDS011;4722;49.340;9.800;2024-03-22T08:01:49;12.10;;;6.32;;
9364;SDS011;4722;49.340;9.800;2024-03-22T08:04:16;13.75;;;6.05;;
9364;SDS011;4722;49.340;9.800;2024-03-22T08:06:42;12.02;;;6.13;;
9364;SDS011;4722;49.340;9.800;2024-03-22T08:09:08;13.88;;;6.78;;
9364;SDS011;4722;49.340;9.800;2024-03-22T08:11:34;14.90;;;6.32;;
9364;SDS011;4722;49.340;9.800;2024-03-22T08:14:00;14.23;;;6.72;;
9364;SDS011;4722;49.340;9.800;2024-03-22T08:16:29;10.35;;;6.15;;
9364;SDS011;4722;49.340;9.800;2024-03-22T08:18:55;16.40;;;5.65;;
9364;SDS011;4722;49.340;9.800;2024-03-22T08:21:22;11.93;;;5.85;;
9364;SDS011;4722;49.340;9.800;2024-03-22T08:23:48;9.88;;;5.10;;
9364;SDS011;4722;49.340;9.800;2024-03-22T08:26:14;14.80;;;5.30;;
9364;SDS011;4722;49.340;9.800;2024-03-22T08:28:40;14.23;;;5.03;;
9364;SDS011;4722;49.340;9.800;2024-03-22T08:31:06;14.18;;;5.18;;
9364;SDS011;4722;49.340;9.800;2024-03-22T08:33:32;11.82;;;5.75;;
9364;SDS011;4722;49.340;9.800;2024-03-22T08:35:58;11.48;;;5.35;;
9364;SDS011;4722;49.340;9.800;2024-03-22T08:38:25;9.43;;;4.40;;
9364;SDS011;4722;49.340;9.800;2024-03-22T08:40:52;11.05;;;5.30;;
9364;SDS011;4722;49.340;9.800;2024-03-22T08:43:18;27.27;;;5.38;;
9364;SDS011;4722;49.340;9.800;2024-03-22T08:45:44;9.20;;;5.00;;
9364;SDS011;4722;49.340;9.800;2024-03-22T08:48:09;10.32;;;4.93;;
9364;SDS011;4722;49.340;9.800;2024-03-22T08:50:35;7.97;;;4.15;;
9364;SDS011;4722;49.340;9.800;2024-03-22T08:53:01;9.88;;;4.72;;
9364;SDS011;4722;49.340;9.800;2024-03-22T08:55:28;8.88;;;4.22;;
9364;SDS011;4722;49.340;9.800;2024-03-22T08:57:54;8.40;;;3.95;;
9364;SDS011;4722;49.340;9.800;2024-03-22T09:00:20;9.35;;;4.03;;
9364;SDS011;4722;49.340;9.800;2024-03-22T09:02:46;6.68;;;3.67;;
9364;SDS011;4722;49.340;9.800;2024-03-22T09:05:12;10.80;;;4.43;;
9364;SDS011;4722;49.340;9.800;2024-03-22T09:07:38;7.80;;;3.40;;
9364;SDS011;4722;49.340;9.800;2024-03-22T09:10:04;6.30;;;3.88;;
9364;SDS011;4722;49.340;9.800;2024-03-22T09:12:31;8.23;;;4.93;;
9364;SDS011;4722;49.340;9.800;2024-03-22T09:14:57;13.27;;;4.18;;
9364;SDS011;4722;49.340;9.800;2024-03-22T09:17:23;11.35;;;4.63;;
9364;SDS011;4722;49.340;9.800;2024-03-22T09:19:49;10.57;;;4.35;;
9364;SDS011;4722;49.340;9.800;2024-03-22T09:22:15;8.05;;;4.35;;
9364;SDS011;4722;49.340;9.800;2024-03-22T09:24:41;7.47;;;3.67;;
9364;SDS011;4722;49.340;9.800;2024-03-22T09:27:07;8.52;;;4.05;;
9364;SDS011;4722;49.340;9.800;2024-03-22T09:29:35;10.23;;;3.65;;
9364;SDS011;4722;49.340;9.800;2024-03-22T09:32:01;8.80;;;3.70;;
9364;SDS011;4722;49.340;9.800;2024-03-22T09:34:27;12.50;;;4.65;;
9364;SDS011;4722;49.340;9.800;2024-03-22T09:36:54;7.65;;;3.60;;
9364;SDS011;4722;49.340;9.800;2024-03-22T09:39:21;10.32;;;3.75;;
9364;SDS011;4722;49.340;9.800;2024-03-22T09:41:47;6.90;;;3.72;;
9364;SDS011;4722;49.340;9.800;2024-03-22T09:44:14;6.95;;;3.67;;
9364;SDS011;4722;49.340;9.800;2024-03-22T09:46:43;5.43;;;3.45;;
9364;SDS011;4722;49.340;9.800;2024-03-22T09:49:10;5.88;;;3.40;;
9364;SDS011;4722;49.340;9.800;2024-03-22T09:51:37;7.18;;;3.65;;
9364;SDS011;4722;49.340;9.800;2024-03-22T09:54:04;6.18;;;2.50;;
9364;SDS011;4722;49.340;9.800;2024-03-22T09:56:30;9.77;;;3.80;;
9364;SDS011;4722;49.340;9.800;2024-03-22T09:58:57;7.75;;;3.08;;
9364;SDS011;4722;49.340;9.800;2024-03-22T10:01:24;4.85;;;2.80;;
9364;SDS011;4722;49.340;9.800;2024-03-22T10:03:53;7.30;;;3.47;;
9364;SDS011;4722;49.340;9.800;2024-03-22T10:06:20;6.95;;;3.10;;
9364;SDS011;4722;49.340;9.800;2024-03-22T10:08:45;5.75;;;3.33;;
9364;SDS011;4722;49.340;9.800;2024-03-22T10:11:11;6.47;;;2.45;;
9364;SDS011;4722;49.340;9.800;2024-03-22T10:13:37;7.18;;;3.10;;
9364;SDS011;4722;49.340;9.800;2024-03-22T10:16:04;6.93;;;3.70;;
9364;SDS011;4722;49.340;9.800;2024-03-22T10:18:32;9.65;;;3.22;;
9364;SDS011;4722;49.340;9.800;2024-03-22T10:20:59;8.82;;;3.20;;
9364;SDS011;4722;49.340;9.800;2024-03-22T10:23:25;10.63;;;3.40;;
9364;SDS011;4722;49.340;9.800;2024-03-22T10:25:51;5.47;;;2.78;;
9364;SDS011;4722;49.340;9.800;2024-03-22T10:28:17;10.05;;;3.35;;
9364;SDS011;4722;49.340;9.800;2024-03-22T10:30:44;10.13;;;3.03;;
9364;SDS011;4722;49.340;9.800;2024-03-22T10:33:10;5.55;;;2.47;;
9364;SDS011;4722;49.340;9.800;2024-03-22T10:35:36;6.65;;;3.30;;
9364;SDS011;4722;49.340;9.800;2024-03-22T10:38:03;5.55;;;3.15;;
9364;SDS011;4722;49.340;9.800;2024-03-22T10:40:29;7.15;;;3.05;;
9364;SDS011;4722;49.340;9.800;2024-03-22T10:42:55;5.63;;;3.17;;
9364;SDS011;4722;49.340;9.800;2024-03-22T10:45:22;5.45;;;2.55;;
9364;SDS011;4722;49.340;9.800;2024-03-22T10:47:50;5.95;;;2.90;;
9364;SDS011;4722;49.340;9.800;2024-03-22T10:50:19;6.45;;;2.67;;
9364;SDS011;4722;49.340;9.800;2024-03-22T10:52:46;11.77;;;3.42;;
9364;SDS011;4722;49.340;9.800;2024-03-22T10:55:19;4.90;;;2.97;;
9364;SDS011;4722;49.340;9.800;2024-03-22T10:57:45;9.45;;;2.85;;
9364;SDS011;4722;49.340;9.800;2024-03-22T11:00:12;7.07;;;3.42;;
9364;SDS011;4722;49.340;9.800;2024-03-22T11:02:42;6.28;;;2.83;;
9364;SDS011;4722;49.340;9.800;2024-03-22T11:05:16;8.45;;;3.47;;
9364;SDS011;4722;49.340;9.800;2024-03-22T11:07:43;8.27;;;3.28;;
9364;SDS011;4722;49.340;9.800;2024-03-22T11:10:11;3.60;;;2.05;;
9364;SDS011;4722;49.340;9.800;2024-03-22T11:12:37;9.05;;;2.83;;
9364;SDS011;4722;49.340;9.800;2024-03-22T11:15:03;5.13;;;2.03;;
9364;SDS011;4722;49.340;9.800;2024-03-22T11:17:29;4.55;;;2.47;;
9364;SDS011;4722;49.340;9.800;2024-03-22T11:19:55;8.68;;;2.92;;
9364;SDS011;4722;49.340;9.800;2024-03-22T11:22:21;9.65;;;2.72;;
9364;SDS011;4722;49.340;9.800;2024-03-22T11:24:47;3.67;;;2.05;;
9364;SDS011;4722;49.340;9.800;2024-03-22T11:27:13;8.23;;;2.47;;
9364;SDS011;4722;49.340;9.800;2024-03-22T11:29:39;7.15;;;2.15;;
9364;SDS011;4722;49.340;9.800;2024-03-22T11:32:09;4.40;;;2.50;;
9364;SDS011;4722;49.340;9.800;2024-03-22T11:34:36;7.55;;;3.25;;
9364;SDS011;4722;49.340;9.800;2024-03-22T11:37:02;6.22;;;2.92;;
9364;SDS011;4722;49.340;9.800;2024-03-22T11:39:28;7.15;;;2.60;;
9364;SDS011;4722;49.340;9.800;2024-03-22T11:41:54;7.03;;;2.63;;
9364;SDS011;4722;49.340;9.800;2024-03-22T11:44:21;3.35;;;2.10;;
9364;SDS011;4722;49.340;9.800;2024-03-22T11:46:50;5.82;;;2.38;;
9364;SDS011;4722;49.340;9.800;2024-03-22T11:49:17;3.92;;;1.60;;
9364;SDS011;4722;49.340;9.800;2024-03-22T11:51:44;7.32;;;2.33;;
9364;SDS011;4722;49.340;9.800;2024-03-22T11:54:10;10.77;;;2.53;;
9364;SDS011;4722;49.340;9.800;2024-03-22T11:56:36;3.42;;;1.73;;
9364;SDS011;4722;49.340;9.800;2024-03-22T11:59:02;5.07;;;2.78;;
9364;SDS011;4722;49.340;9.800;2024-03-22T12:01:28;7.45;;;2.28;;
9364;SDS011;4722;49.340;9.800;2024-03-22T12:03:55;5.50;;;2.35;;
9364;SDS011;4722;49.340;9.800;2024-03-22T12:06:21;5.57;;;2.15;;
9364;SDS011;4722;49.340;9.800;2024-03-22T12:08:47;3.25;;;1.98;;
9364;SDS011;4722;49.340;9.800;2024-03-22T12:11:13;5.22;;;2.63;;
9364;SDS011;4722;49.340;9.800;2024-03-22T12:13:39;4.03;;;2.00;;
9364;SDS011;4722;49.340;9.800;2024-03-22T12:16:05;8.07;;;2.20;;
9364;SDS011;4722;49.340;9.800;2024-03-22T12:18:32;6.47;;;1.80;;
9364;SDS011;4722;49.340;9.800;2024-03-22T12:20:58;4.38;;;1.65;;
9364;SDS011;4722;49.340;9.800;2024-03-22T12:23:25;2.80;;;1.33;;
9364;SDS011;4722;49.340;9.800;2024-03-22T12:25:51;2.33;;;1.25;;
9364;SDS011;4722;49.340;9.800;2024-03-22T12:28:17;4.03;;;2.15;;
9364;SDS011;4722;49.340;9.800;2024-03-22T12:30:43;4.10;;;1.73;;
9364;SDS011;4722;49.340;9.800;2024-03-22T12:33:09;3.83;;;1.73;;
9364;SDS011;4722;49.340;9.800;2024-03-22T12:35:36;6.95;;;2.22;;
9364;SDS011;4722;49.340;9.800;2024-03-22T12:38:02;3.40;;;1.65;;
9364;SDS011;4722;49.340;9.800;2024-03-22T12:40:28;11.80;;;2.63;;
9364;SDS011;4722;49.340;9.800;2024-03-22T12:42:55;5.50;;;2.75;;
9364;SDS011;4722;49.340;9.800;2024-03-22T12:45:21;6.00;;;2.58;;
9364;SDS011;4722;49.340;9.800;2024-03-22T12:47:47;4.88;;;2.30;;
9364;SDS011;4722;49.340;9.800;2024-03-22T12:50:13;5.68;;;3.08;;
9364;SDS011;4722;49.340;9.800;2024-03-22T12:52:39;6.07;;;2.95;;
9364;SDS011;4722;49.340;9.800;2024-03-22T12:55:05;10.73;;;3.42;;
9364;SDS011;4722;49.340;9.800;2024-03-22T12:57:32;9.45;;;2.75;;
9364;SDS011;4722;49.340;9.800;2024-03-22T12:59:58;4.88;;;2.88;;
9364;SDS011;4722;49.340;9.800;2024-03-22T13:02:24;11.52;;;3.05;;
9364;SDS011;4722;49.340;9.800;2024-03-22T13:04:51;3.80;;;2.53;;
9364;SDS011;4722;49.340;9.800;2024-03-22T13:07:18;4.38;;;2.67;;
9364;SDS011;4722;49.340;9.800;2024-03-22T13:09:44;7.80;;;3.25;;
9364;SDS011;4722;49.340;9.800;2024-03-22T13:12:10;7.45;;;3.40;;
9364;SDS011;4722;49.340;9.800;2024-03-22T13:14:36;7.60;;;3.30;;
9364;SDS011;4722;49.340;9.800;2024-03-22T13:17:02;6.18;;;3.15;;
9364;SDS011;4722;49.340;9.800;2024-03-22T13:19:28;5.75;;;3.50;;
9364;SDS011;4722;49.340;9.800;2024-03-22T13:21:54;8.18;;;3.45;;
9364;SDS011;4722;49.340;9.800;2024-03-22T13:24:20;10.32;;;5.05;;
9364;SDS011;4722;49.340;9.800;2024-03-22T13:26:46;9.80;;;3.85;;
9364;SDS011;4722;49.340;9.800;2024-03-22T13:29:12;11.20;;;4.78;;
9364;SDS011;4722;49.340;9.800;2024-03-22T13:31:39;5.60;;;2.85;;
9364;SDS011;4722;49.340;9.800;2024-03-22T13:34:05;6.93;;;3.30;;
9364;SDS011;4722;49.340;9.800;2024-03-22T13:36:30;9.93;;;3.30;;
9364;SDS011;4722;49.340;9.800;2024-03-22T13:38:58;9.20;;;3.83;;
9364;SDS011;4722;49.340;9.800;2024-03-22T13:41:24;6.47;;;3.47;;
9364;SDS011;4722;49.340;9.800;2024-03-22T13:43:50;9.25;;;3.58;;
9364;SDS011;4722;49.340;9.800;2024-03-22T13:46:16;6.10;;;2.83;;
9364;SDS011;4722;49.340;9.800;2024-03-22T13:48:42;5.35;;;2.88;;
9364;SDS011;4722;49.340;9.800;2024-03-22T13:51:10;4.38;;;2.45;;
9364;SDS011;4722;49.340;9.800;2024-03-22T13:53:35;5.72;;;2.65;;
9364;SDS011;4722;49.340;9.800;2024-03-22T13:56:02;6.47;;;3.60;;
9364;SDS011;4722;49.340;9.800;2024-03-22T13:58:28;6.05;;;3.00;;
9364;SDS011;4722;49.340;9.800;2024-03-22T14:00:54;11.50;;;3.10;;
9364;SDS011;4722;49.340;9.800;2024-03-22T14:03:19;6.25;;;3.00;;
9364;SDS011;4722;49.340;9.800;2024-03-22T14:05:45;5.13;;;2.67;;
9364;SDS011;4722;49.340;9.800;2024-03-22T14:08:11;4.47;;;2.75;;
9364;SDS011;4722;49.340;9.800;2024-03-22T14:10:37;6.20;;;2.97;;
9364;SDS011;4722;49.340;9.800;2024-03-22T14:13:03;8.13;;;3.10;;
9364;SDS011;4722;49.340;9.800;2024-03-22T14:15:32;5.90;;;3.28;;
9364;SDS011;4722;49.340;9.800;2024-03-22T14:18:00;5.82;;;3.03;;
9364;SDS011;4722;49.340;9.800;2024-03-22T14:20:26;4.55;;;2.47;;
9364;SDS011;4722;49.340;9.800;2024-03-22T14:22:52;8.23;;;2.70;;
9364;SDS011;4722;49.340;9.800;2024-03-22T14:25:18;6.50;;;2.63;;
9364;SDS011;4722;49.340;9.800;2024-03-22T14:27:45;4.95;;;2.78;;
9364;SDS011;4722;49.340;9.800;2024-03-22T14:30:12;6.70;;;2.47;;
9364;SDS011;4722;49.340;9.800;2024-03-22T14:32:38;3.95;;;2.17;;
9364;SDS011;4722;49.340;9.800;2024-03-22T14:35:05;5.22;;;1.58;;
9364;SDS011;4722;49.340;9.800;2024-03-22T14:37:31;7.72;;;2.63;;
9364;SDS011;4722;49.340;9.800;2024-03-22T14:39:57;4.53;;;2.00;;
9364;SDS011;4722;49.340;9.800;2024-03-22T14:42:23;5.60;;;1.77;;
9364;SDS011;4722;49.340;9.800;2024-03-22T14:44:49;2.25;;;1.23;;
9364;SDS011;4722;49.340;9.800;2024-03-22T14:47:15;5.03;;;1.58;;
9364;SDS011;4722;49.340;9.800;2024-03-22T14:49:41;3.35;;;1.67;;
9364;SDS011;4722;49.340;9.800;2024-03-22T14:52:08;5.70;;;1.58;;
9364;SDS011;4722;49.340;9.800;2024-03-22T14:54:34;4.70;;;1.65;;
9364;SDS011;4722;49.340;9.800;2024-03-22T14:57:00;2.17;;;1.20;;
9364;SDS011;4722;49.340;9.800;2024-03-22T14:59:29;4.82;;;1.35;;
9364;SDS011;4722;49.340;9.800;2024-03-22T15:01:55;9.48;;;1.40;;
9364;SDS011;4722;49.340;9.800;2024-03-22T15:04:21;2.95;;;1.30;;
9364;SDS011;4722;49.340;9.800;2024-03-22T15:06:47;6.85;;;1.45;;